sensor_id;sensor_type;location;lat;lon;timestamp;P1;durP1;ratioP1;P2;durP2;ratioP2
80559;SDS011;70065;42.700;23.316;2023-08-07T00:01:40;2.30;;;2.10;;
80559;SDS011;70065;42.700;23.316;2023-08-07T00:04:08;1.90;;;1.80;;
80559;SDS011;70065;42.700;23.316;2023-08-07T00:06:34;1.80;;;1.70;;
80559;SDS011;70065;42.700;23.316;2023-08-07T00:09:01;1.70;;;1.60;;
80559;SDS011;70065;42.700;23.316;2023-08-07T00:11:27;1.75;;;1.60;;
80559;SDS011;70065;42.700;23.316;2023-08-07T00:13:53;1.67;;;1.58;;
80559;SDS011;70065;42.700;23.316;2023-08-07T00:16:19;1.73;;;1.63;;
80559;SDS011;70065;42.700;23.316;2023-08-07T00:18:45;2.13;;;1.83;;
80559;SDS011;70065;42.700;23.316;2023-08-07T00:21:11;2.60;;;2.00;;
80559;SDS011;70065;42.700;23.316;2023-08-07T00:23:37;1.90;;;1.80;;
80559;SDS011;70065;42.700;23.316;2023-08-07T00:26:03;2.28;;;1.75;;
80559;SDS011;70065;42.700;23.316;2023-08-07T00:28:29;2.13;;;1.80;;
80559;SDS011;70065;42.700;23.316;2023-08-07T00:30:55;2.15;;;1.95;;
80559;SDS011;70065;42.700;23.316;2023-08-07T00:33:21;2.15;;;2.00;;
80559;SDS011;70065;42.700;23.316;2023-08-07T00:35:47;2.22;;;1.88;;
80559;SDS011;70065;42.700;23.316;2023-08-07T00:38:13;2.05;;;1.92;;
80559;SDS011;70065;42.700;23.316;2023-08-07T00:40:39;2.67;;;1.50;;
80559;SDS011;70065;42.700;23.316;2023-08-07T00:43:06;1.77;;;1.67;;
80559;SDS011;70065;42.700;23.316;2023-08-07T00:45:36;1.70;;;1.60;;
80559;SDS011;70065;42.700;23.316;2023-08-07T00:48:06;1.75;;;1.63;;
80559;SDS011;70065;42.700;23.316;2023-08-07T00:50:32;1.80;;;1.70;;
80559;SDS011;70065;42.700;23.316;2023-08-07T00:52:58;2.10;;;1.90;;
80559;SDS011;70065;42.700;23.316;2023-08-07T00:55:25;1.80;;;1.70;;
80559;SDS011;70065;42.700;23.316;2023-08-07T00:57:51;1.70;;;1.60;;
80559;SDS011;70065;42.700;23.316;2023-08-07T01:00:16;1.80;;;1.70;;
80559;SDS011;70065;42.700;23.316;2023-08-07T01:02:42;1.70;;;1.60;;
80559;SDS011;70065;42.700;23.316;2023-08-07T01:05:09;2.00;;;1.80;;
80559;SDS011;70065;42.700;23.316;2023-08-07T01:07:34;1.75;;;1.65;;
80559;SDS011;70065;42.700;23.316;2023-08-07T01:10:00;1.67;;;1.58;;
80559;SDS011;70065;42.700;23.316;2023-08-07T01:12:36;2.13;;;1.67;;
80559;SDS011;70065;42.700;23.316;2023-08-07T01:15:14;1.77;;;1.67;;
80559;SDS011;70065;42.700;23.316;2023-08-07T01:17:43;2.00;;;1.80;;
80559;SDS011;70065;42.700;23.316;2023-08-07T01:20:13;2.10;;;1.90;;
80559;SDS011;70065;42.700;23.316;2023-08-07T01:22:39;1.98;;;1.58;;
80559;SDS011;70065;42.700;23.316;2023-08-07T01:25:05;1.77;;;1.67;;
80559;SDS011;70065;42.700;23.316;2023-08-07T01:27:39;1.65;;;1.55;;
80559;SDS011;70065;42.700;23.316;2023-08-07T01:30:14;1.65;;;1.55;;
80559;SDS011;70065;42.700;23.316;2023-08-07T01:35:42;2.00;;;1.63;;
80559;SDS011;70065;42.700;23.316;2023-08-07T01:38:11;1.70;;;1.60;;
80559;SDS011;70065;42.700;23.316;2023-08-07T01:40:40;1.42;;;1.33;;
80559;SDS011;70065;42.700;23.316;2023-08-07T01:43:08;1.60;;;1.50;;
80559;SDS011;70065;42.700;23.316;2023-08-07T01:45:34;1.75;;;1.63;;
80559;SDS011;70065;42.700;23.316;2023-08-07T01:48:00;1.60;;;1.50;;
80559;SDS011;70065;42.700;23.316;2023-08-07T01:50:26;1.73;;;1.60;;
80559;SDS011;70065;42.700;23.316;2023-08-07T01:52:52;1.70;;;1.60;;
80559;SDS011;70065;42.700;23.316;2023-08-07T01:55:19;1.77;;;1.67;;
80559;SDS011;70065;42.700;23.316;2023-08-07T01:57:45;1.58;;;1.30;;
80559;SDS011;70065;42.700;23.316;2023-08-07T02:00:11;1.67;;;1.58;;
80559;SDS011;70065;42.700;23.316;2023-08-07T02:02:37;1.70;;;1.60;;
80559;SDS011;70065;42.700;23.316;2023-08-07T02:05:03;1.92;;;1.65;;
80559;SDS011;70065;42.700;23.316;2023-08-07T02:07:30;2.13;;;1.45;;
80559;SDS011;70065;42.700;23.316;2023-08-07T02:09:56;1.60;;;1.50;;
80559;SDS011;70065;42.700;23.316;2023-08-07T02:12:23;2.00;;;1.80;;
80559;SDS011;70065;42.700;23.316;2023-08-07T02:14:51;1.42;;;1.27;;
80559;SDS011;70065;42.700;23.316;2023-08-07T02:17:17;1.60;;;1.50;;
80559;SDS011;70065;42.700;23.316;2023-08-07T02:19:42;1.50;;;1.40;;
80559;SDS011;70065;42.700;23.316;2023-08-07T02:22:09;1.77;;;1.67;;
80559;SDS011;70065;42.700;23.316;2023-08-07T02:24:35;1.23;;;1.13;;
80559;SDS011;70065;42.700;23.316;2023-08-07T02:27:01;1.70;;;1.60;;
80559;SDS011;70065;42.700;23.316;2023-08-07T02:29:27;1.42;;;1.33;;
80559;SDS011;70065;42.700;23.316;2023-08-07T02:31:55;2.10;;;1.70;;
80559;SDS011;70065;42.700;23.316;2023-08-07T02:34:21;1.50;;;1.40;;
80559;SDS011;70065;42.700;23.316;2023-08-07T02:36:47;1.60;;;1.50;;
80559;SDS011;70065;42.700;23.316;2023-08-07T02:39:13;1.83;;;1.50;;
80559;SDS011;70065;42.700;23.316;2023-08-07T02:41:39;1.50;;;1.40;;
80559;SDS011;70065;42.700;23.316;2023-08-07T02:44:05;1.80;;;1.55;;
80559;SDS011;70065;42.700;23.316;2023-08-07T02:46:31;1.35;;;1.25;;
80559;SDS011;70065;42.700;23.316;2023-08-07T02:48:56;1.50;;;1.40;;
80559;SDS011;70065;42.700;23.316;2023-08-07T02:51:22;1.80;;;1.70;;
80559;SDS011;70065;42.700;23.316;2023-08-07T02:53:49;1.85;;;1.70;;
80559;SDS011;70065;42.700;23.316;2023-08-07T02:56:14;1.73;;;1.60;;
80559;SDS011;70065;42.700;23.316;2023-08-07T02:58:40;1.73;;;1.63;;
80559;SDS011;70065;42.700;23.316;2023-08-07T03:01:06;1.50;;;1.40;;
80559;SDS011;70065;42.700;23.316;2023-08-07T03:03:34;1.70;;;1.60;;
80559;SDS011;70065;42.700;23.316;2023-08-07T03:05:59;1.48;;;1.38;;
80559;SDS011;70065;42.700;23.316;2023-08-07T03:08:25;1.45;;;1.35;;
80559;SDS011;70065;42.700;23.316;2023-08-07T03:10:55;1.95;;;1.55;;
80559;SDS011;70065;42.700;23.316;2023-08-07T03:13:22;1.50;;;1.40;;
80559;SDS011;70065;42.700;23.316;2023-08-07T03:15:48;1.30;;;1.15;;
80559;SDS011;70065;42.700;23.316;2023-08-07T03:18:16;1.65;;;1.55;;
80559;SDS011;70065;42.700;23.316;2023-08-07T03:20:42;1.60;;;1.50;;
80559;SDS011;70065;42.700;23.316;2023-08-07T03:23:08;1.48;;;1.38;;
80559;SDS011;70065;42.700;23.316;2023-08-07T03:25:37;1.42;;;1.33;;
80559;SDS011;70065;42.700;23.316;2023-08-07T03:28:02;1.55;;;1.45;;
80559;SDS011;70065;42.700;23.316;2023-08-07T03:30:28;1.60;;;1.50;;
80559;SDS011;70065;42.700;23.316;2023-08-07T03:32:54;2.00;;;1.73;;
80559;SDS011;70065;42.700;23.316;2023-08-07T03:35:20;1.50;;;1.40;;
80559;SDS011;70065;42.700;23.316;2023-08-07T03:37:46;1.65;;;1.50;;
80559;SDS011;70065;42.700;23.316;2023-08-07T03:40:12;1.50;;;1.40;;
80559;SDS011;70065;42.700;23.316;2023-08-07T03:42:38;1.58;;;1.48;;
80559;SDS011;70065;42.700;23.316;2023-08-07T03:45:04;1.58;;;1.48;;
80559;SDS011;70065;42.700;23.316;2023-08-07T03:47:30;1.60;;;1.50;;
80559;SDS011;70065;42.700;23.316;2023-08-07T03:49:57;1.80;;;1.42;;
80559;SDS011;70065;42.700;23.316;2023-08-07T03:52:22;1.50;;;1.40;;
80559;SDS011;70065;42.700;23.316;2023-08-07T03:54:48;1.40;;;1.30;;
80559;SDS011;70065;42.700;23.316;2023-08-07T03:57:14;1.50;;;1.40;;
80559;SDS011;70065;42.700;23.316;2023-08-07T03:59:40;1.38;;;1.27;;
80559;SDS011;70065;42.700;23.316;2023-08-07T04:02:06;1.70;;;1.60;;
80559;SDS011;70065;42.700;23.316;2023-08-07T04:04:32;2.50;;;1.65;;
80559;SDS011;70065;42.700;23.316;2023-08-07T04:06:58;2.20;;;1.42;;
80559;SDS011;70065;42.700;23.316;2023-08-07T04:09:23;1.88;;;1.77;;
80559;SDS011;70065;42.700;23.316;2023-08-07T04:11:49;1.80;;;1.63;;
80559;SDS011;70065;42.700;23.316;2023-08-07T04:14:15;1.55;;;1.45;;
80559;SDS011;70065;42.700;23.316;2023-08-07T04:16:40;1.55;;;1.45;;
80559;SDS011;70065;42.700;23.316;2023-08-07T04:21:36;1.60;;;1.50;;
80559;SDS011;70065;42.700;23.316;2023-08-07T04:24:01;1.40;;;1.30;;
80559;SDS011;70065;42.700;23.316;2023-08-07T04:26:35;1.58;;;1.48;;
80559;SDS011;70065;42.700;23.316;2023-08-07T04:29:02;1.95;;;1.70;;
80559;SDS011;70065;42.700;23.316;2023-08-07T04:31:28;1.40;;;1.30;;
80559;SDS011;70065;42.700;23.316;2023-08-07T04:33:56;1.50;;;1.40;;
80559;SDS011;70065;42.700;23.316;2023-08-07T04:36:22;1.35;;;1.20;;
80559;SDS011;70065;42.700;23.316;2023-08-07T04:38:48;1.13;;;1.10;;
80559;SDS011;70065;42.700;23.316;2023-08-07T04:41:14;1.10;;;1.00;;
80559;SDS011;70065;42.700;23.316;2023-08-07T04:43:40;1.05;;;0.95;;
80559;SDS011;70065;42.700;23.316;2023-08-07T04:46:08;0.88;;;0.88;;
80559;SDS011;70065;42.700;23.316;2023-08-07T04:48:38;0.80;;;0.80;;
80559;SDS011;70065;42.700;23.316;2023-08-07T04:51:03;0.88;;;0.88;;
80559;SDS011;70065;42.700;23.316;2023-08-07T04:53:29;1.45;;;0.90;;
80559;SDS011;70065;42.700;23.316;2023-08-07T04:55:54;0.77;;;0.77;;
80559;SDS011;70065;42.700;23.316;2023-08-07T04:58:20;0.80;;;0.80;;
80559;SDS011;70065;42.700;23.316;2023-08-07T05:00:46;0.65;;;0.65;;
80559;SDS011;70065;42.700;23.316;2023-08-07T05:03:12;0.60;;;0.60;;
80559;SDS011;70065;42.700;23.316;2023-08-07T05:05:40;0.50;;;0.50;;
80559;SDS011;70065;42.700;23.316;2023-08-07T05:08:06;0.80;;;0.80;;
80559;SDS011;70065;42.700;23.316;2023-08-07T05:10:32;0.63;;;0.63;;
80559;SDS011;70065;42.700;23.316;2023-08-07T05:12:57;0.73;;;0.73;;
80559;SDS011;70065;42.700;23.316;2023-08-07T05:15:24;0.70;;;0.70;;
80559;SDS011;70065;42.700;23.316;2023-08-07T05:17:53;0.63;;;0.63;;
80559;SDS011;70065;42.700;23.316;2023-08-07T05:20:19;0.57;;;0.50;;
80559;SDS011;70065;42.700;23.316;2023-08-07T05:22:45;0.65;;;0.60;;
80559;SDS011;70065;42.700;23.316;2023-08-07T05:25:11;0.70;;;0.70;;
80559;SDS011;70065;42.700;23.316;2023-08-07T05:30:10;0.40;;;0.40;;
80559;SDS011;70065;42.700;23.316;2023-08-07T05:32:37;0.60;;;0.60;;
80559;SDS011;70065;42.700;23.316;2023-08-07T05:35:04;0.93;;;0.50;;
80559;SDS011;70065;42.700;23.316;2023-08-07T05:37:32;1.03;;;0.50;;
80559;SDS011;70065;42.700;23.316;2023-08-07T05:39:58;0.68;;;0.63;;
80559;SDS011;70065;42.700;23.316;2023-08-07T05:42:26;0.50;;;0.50;;
80559;SDS011;70065;42.700;23.316;2023-08-07T05:44:51;0.70;;;0.50;;
80559;SDS011;70065;42.700;23.316;2023-08-07T05:47:17;0.50;;;0.50;;
80559;SDS011;70065;42.700;23.316;2023-08-07T05:49:43;0.50;;;0.50;;
80559;SDS011;70065;42.700;23.316;2023-08-07T05:52:11;0.60;;;0.57;;
80559;SDS011;70065;42.700;23.316;2023-08-07T05:54:37;0.40;;;0.40;;
80559;SDS011;70065;42.700;23.316;2023-08-07T05:57:02;0.50;;;0.50;;
80559;SDS011;70065;42.700;23.316;2023-08-07T05:59:28;0.80;;;0.57;;
80559;SDS011;70065;42.700;23.316;2023-08-07T06:01:54;0.40;;;0.40;;
80559;SDS011;70065;42.700;23.316;2023-08-07T06:04:20;0.57;;;0.50;;
80559;SDS011;70065;42.700;23.316;2023-08-07T06:06:47;0.45;;;0.45;;
80559;SDS011;70065;42.700;23.316;2023-08-07T06:09:13;1.00;;;0.30;;
80559;SDS011;70065;42.700;23.316;2023-08-07T06:11:42;0.32;;;0.30;;
80559;SDS011;70065;42.700;23.316;2023-08-07T06:14:10;0.82;;;0.45;;
80559;SDS011;70065;42.700;23.316;2023-08-07T06:16:36;0.30;;;0.28;;
80559;SDS011;70065;42.700;23.316;2023-08-07T06:19:08;0.65;;;0.40;;
80559;SDS011;70065;42.700;23.316;2023-08-07T06:21:34;0.50;;;0.50;;
80559;SDS011;70065;42.700;23.316;2023-08-07T06:23:59;0.45;;;0.45;;
80559;SDS011;70065;42.700;23.316;2023-08-07T06:26:25;0.40;;;0.40;;
80559;SDS011;70065;42.700;23.316;2023-08-07T06:28:52;0.40;;;0.40;;
80559;SDS011;70065;42.700;23.316;2023-08-07T06:31:18;0.40;;;0.40;;
80559;SDS011;70065;42.700;23.316;2023-08-07T06:33:45;0.77;;;0.50;;
80559;SDS011;70065;42.700;23.316;2023-08-07T06:36:11;0.60;;;0.50;;
80559;SDS011;70065;42.700;23.316;2023-08-07T06:38:36;0.43;;;0.43;;
80559;SDS011;70065;42.700;23.316;2023-08-07T06:41:04;0.60;;;0.40;;
80559;SDS011;70065;42.700;23.316;2023-08-07T06:43:30;0.47;;;0.47;;
80559;SDS011;70065;42.700;23.316;2023-08-07T06:45:56;0.63;;;0.50;;
80559;SDS011;70065;42.700;23.316;2023-08-07T06:48:24;0.40;;;0.40;;
80559;SDS011;70065;42.700;23.316;2023-08-07T06:50:53;1.08;;;0.50;;
80559;SDS011;70065;42.700;23.316;2023-08-07T06:53:19;0.88;;;0.70;;
80559;SDS011;70065;42.700;23.316;2023-08-07T06:55:45;0.70;;;0.45;;
80559;SDS011;70065;42.700;23.316;2023-08-07T06:58:11;1.50;;;0.60;;
80559;SDS011;70065;42.700;23.316;2023-08-07T07:00:37;0.55;;;0.55;;
80559;SDS011;70065;42.700;23.316;2023-08-07T07:03:03;0.50;;;0.50;;
80559;SDS011;70065;42.700;23.316;2023-08-07T07:05:29;0.50;;;0.50;;
80559;SDS011;70065;42.700;23.316;2023-08-07T07:07:57;1.52;;;0.70;;
80559;SDS011;70065;42.700;23.316;2023-08-07T07:10:23;2.50;;;0.65;;
80559;SDS011;70065;42.700;23.316;2023-08-07T07:12:49;3.03;;;0.70;;
80559;SDS011;70065;42.700;23.316;2023-08-07T07:15:15;2.13;;;0.90;;
80559;SDS011;70065;42.700;23.316;2023-08-07T07:17:40;1.52;;;0.63;;
80559;SDS011;70065;42.700;23.316;2023-08-07T07:20:06;1.08;;;0.60;;
80559;SDS011;70065;42.700;23.316;2023-08-07T07:22:34;3.67;;;0.70;;
80559;SDS011;70065;42.700;23.316;2023-08-07T07:25:00;0.60;;;0.60;;
80559;SDS011;70065;42.700;23.316;2023-08-07T07:27:29;1.40;;;0.70;;
80559;SDS011;70065;42.700;23.316;2023-08-07T07:29:54;2.20;;;0.80;;
80559;SDS011;70065;42.700;23.316;2023-08-07T07:32:20;1.23;;;0.85;;
80559;SDS011;70065;42.700;23.316;2023-08-07T07:34:46;2.72;;;0.60;;
80559;SDS011;70065;42.700;23.316;2023-08-07T07:37:12;2.38;;;0.80;;
80559;SDS011;70065;42.700;23.316;2023-08-07T07:39:39;1.33;;;0.68;;
80559;SDS011;70065;42.700;23.316;2023-08-07T07:42:06;1.88;;;0.70;;
80559;SDS011;70065;42.700;23.316;2023-08-07T07:44:33;3.10;;;0.70;;
80559;SDS011;70065;42.700;23.316;2023-08-07T07:47:00;3.33;;;0.80;;
80559;SDS011;70065;42.700;23.316;2023-08-07T07:49:26;3.55;;;1.33;;
80559;SDS011;70065;42.700;23.316;2023-08-07T07:51:52;1.40;;;0.90;;
80559;SDS011;70065;42.700;23.316;2023-08-07T07:54:17;2.22;;;0.82;;
80559;SDS011;70065;42.700;23.316;2023-08-07T07:56:43;2.08;;;0.85;;
80559;SDS011;70065;42.700;23.316;2023-08-07T07:59:09;1.77;;;1.20;;
80559;SDS011;70065;42.700;23.316;2023-08-07T08:01:36;4.43;;;1.10;;
80559;SDS011;70065;42.700;23.316;2023-08-07T08:04:03;1.38;;;0.93;;
80559;SDS011;70065;42.700;23.316;2023-08-07T08:06:29;2.83;;;1.08;;
80559;SDS011;70065;42.700;23.316;2023-08-07T08:08:56;3.10;;;1.00;;
80559;SDS011;70065;42.700;23.316;2023-08-07T08:11:22;3.00;;;1.25;;
80559;SDS011;70065;42.700;23.316;2023-08-07T08:13:49;3.35;;;1.30;;
80559;SDS011;70065;42.700;23.316;2023-08-07T08:16:17;6.53;;;1.40;;
80559;SDS011;70065;42.700;23.316;2023-08-07T08:18:43;3.97;;;1.20;;
80559;SDS011;70065;42.700;23.316;2023-08-07T08:21:09;3.13;;;1.17;;
80559;SDS011;70065;42.700;23.316;2023-08-07T08:23:37;4.00;;;1.42;;
80559;SDS011;70065;42.700;23.316;2023-08-07T08:26:06;3.08;;;0.98;;
80559;SDS011;70065;42.700;23.316;2023-08-07T08:31:24;3.55;;;1.20;;
80559;SDS011;70065;42.700;23.316;2023-08-07T08:33:50;3.67;;;1.17;;
80559;SDS011;70065;42.700;23.316;2023-08-07T08:36:16;4.85;;;1.50;;
80559;SDS011;70065;42.700;23.316;2023-08-07T08:38:43;3.65;;;0.93;;
80559;SDS011;70065;42.700;23.316;2023-08-07T08:41:11;2.05;;;0.80;;
80559;SDS011;70065;42.700;23.316;2023-08-07T08:43:38;1.67;;;1.08;;
80559;SDS011;70065;42.700;23.316;2023-08-07T08:46:07;3.22;;;1.10;;
80559;SDS011;70065;42.700;23.316;2023-08-07T08:48:34;4.45;;;1.23;;
80559;SDS011;70065;42.700;23.316;2023-08-07T08:51:01;3.13;;;1.08;;
80559;SDS011;70065;42.700;23.316;2023-08-07T08:53:31;2.10;;;1.17;;
80559;SDS011;70065;42.700;23.316;2023-08-07T08:56:00;4.05;;;1.10;;
80559;SDS011;70065;42.700;23.316;2023-08-07T08:58:28;4.03;;;1.27;;
80559;SDS011;70065;42.700;23.316;2023-08-07T09:00:56;2.75;;;1.02;;
80559;SDS011;70065;42.700;23.316;2023-08-07T09:03:24;3.33;;;1.30;;
80559;SDS011;70065;42.700;23.316;2023-08-07T09:05:51;2.75;;;1.38;;
80559;SDS011;70065;42.700;23.316;2023-08-07T09:08:24;3.55;;;1.77;;
80559;SDS011;70065;42.700;23.316;2023-08-07T09:13:20;3.50;;;1.30;;
80559;SDS011;70065;42.700;23.316;2023-08-07T09:15:58;2.60;;;0.90;;
80559;SDS011;70065;42.700;23.316;2023-08-07T09:18:26;4.07;;;1.60;;
80559;SDS011;70065;42.700;23.316;2023-08-07T09:20:52;3.22;;;1.30;;
80559;SDS011;70065;42.700;23.316;2023-08-07T09:23:19;3.78;;;1.70;;
80559;SDS011;70065;42.700;23.316;2023-08-07T09:25:58;4.80;;;1.65;;
80559;SDS011;70065;42.700;23.316;2023-08-07T09:28:25;3.17;;;1.42;;
80559;SDS011;70065;42.700;23.316;2023-08-07T09:30:52;1.92;;;1.17;;
80559;SDS011;70065;42.700;23.316;2023-08-07T09:33:27;2.83;;;1.40;;
80559;SDS011;70065;42.700;23.316;2023-08-07T09:35:57;4.88;;;1.67;;
80559;SDS011;70065;42.700;23.316;2023-08-07T09:38:26;7.00;;;1.67;;
80559;SDS011;70065;42.700;23.316;2023-08-07T09:40:57;4.15;;;1.52;;
80559;SDS011;70065;42.700;23.316;2023-08-07T09:43:25;5.72;;;1.60;;
80559;SDS011;70065;42.700;23.316;2023-08-07T09:45:51;4.68;;;1.60;;
80559;SDS011;70065;42.700;23.316;2023-08-07T09:48:23;2.45;;;1.30;;
80559;SDS011;70065;42.700;23.316;2023-08-07T09:50:54;4.30;;;1.38;;
80559;SDS011;70065;42.700;23.316;2023-08-07T09:53:29;3.50;;;1.60;;
80559;SDS011;70065;42.700;23.316;2023-08-07T09:55:55;4.93;;;1.80;;
80559;SDS011;70065;42.700;23.316;2023-08-07T09:58:22;6.45;;;1.80;;
80559;SDS011;70065;42.700;23.316;2023-08-07T10:00:49;3.85;;;1.65;;
80559;SDS011;70065;42.700;23.316;2023-08-07T10:03:18;2.60;;;1.50;;
80559;SDS011;70065;42.700;23.316;2023-08-07T10:05:45;6.60;;;1.85;;
80559;SDS011;70065;42.700;23.316;2023-08-07T10:08:14;4.07;;;1.58;;
80559;SDS011;70065;42.700;23.316;2023-08-07T10:10:41;3.63;;;1.67;;
80559;SDS011;70065;42.700;23.316;2023-08-07T10:13:08;2.55;;;1.80;;
80559;SDS011;70065;42.700;23.316;2023-08-07T10:15:39;3.25;;;1.70;;
80559;SDS011;70065;42.700;23.316;2023-08-07T10:18:07;3.05;;;1.77;;
80559;SDS011;70065;42.700;23.316;2023-08-07T10:20:51;3.58;;;1.75;;
80559;SDS011;70065;42.700;23.316;2023-08-07T10:23:17;3.83;;;1.60;;
80559;SDS011;70065;42.700;23.316;2023-08-07T10:25:43;2.53;;;1.45;;
80559;SDS011;70065;42.700;23.316;2023-08-07T10:28:12;2.85;;;1.55;;
80559;SDS011;70065;42.700;23.316;2023-08-07T10:30:41;2.55;;;1.65;;
80559;SDS011;70065;42.700;23.316;2023-08-07T10:33:12;2.47;;;1.67;;
80559;SDS011;70065;42.700;23.316;2023-08-07T10:35:44;2.75;;;1.70;;
80559;SDS011;70065;42.700;23.316;2023-08-07T10:38:12;4.45;;;1.83;;
80559;SDS011;70065;42.700;23.316;2023-08-07T10:43:42;3.40;;;1.70;;
80559;SDS011;70065;42.700;23.316;2023-08-07T10:46:46;2.65;;;1.50;;
80559;SDS011;70065;42.700;23.316;2023-08-07T10:49:32;2.78;;;1.63;;
80559;SDS011;70065;42.700;23.316;2023-08-07T10:52:12;4.25;;;2.13;;
80559;SDS011;70065;42.700;23.316;2023-08-07T10:54:49;3.92;;;1.98;;
80559;SDS011;70065;42.700;23.316;2023-08-07T10:57:15;5.10;;;1.95;;
80559;SDS011;70065;42.700;23.316;2023-08-07T11:02:30;2.75;;;1.50;;
80559;SDS011;70065;42.700;23.316;2023-08-07T11:04:59;3.92;;;1.50;;
80559;SDS011;70065;42.700;23.316;2023-08-07T11:07:27;2.80;;;1.80;;
80559;SDS011;70065;42.700;23.316;2023-08-07T11:09:56;2.30;;;1.67;;
80559;SDS011;70065;42.700;23.316;2023-08-07T11:12:26;3.33;;;2.00;;
80559;SDS011;70065;42.700;23.316;2023-08-07T11:14:53;3.08;;;1.88;;
80559;SDS011;70065;42.700;23.316;2023-08-07T11:17:26;3.10;;;1.80;;
80559;SDS011;70065;42.700;23.316;2023-08-07T11:19:57;3.97;;;1.80;;
80559;SDS011;70065;42.700;23.316;2023-08-07T11:22:23;4.43;;;1.60;;
80559;SDS011;70065;42.700;23.316;2023-08-07T11:24:52;2.58;;;1.85;;
80559;SDS011;70065;42.700;23.316;2023-08-07T11:27:20;3.53;;;1.88;;
80559;SDS011;70065;42.700;23.316;2023-08-07T11:29:48;4.00;;;1.77;;
80559;SDS011;70065;42.700;23.316;2023-08-07T11:32:14;2.70;;;1.55;;
80559;SDS011;70065;42.700;23.316;2023-08-07T11:34:40;2.70;;;1.85;;
80559;SDS011;70065;42.700;23.316;2023-08-07T11:37:05;2.50;;;1.80;;
80559;SDS011;70065;42.700;23.316;2023-08-07T11:39:31;2.83;;;1.52;;
80559;SDS011;70065;42.700;23.316;2023-08-07T11:41:57;2.05;;;1.70;;
80559;SDS011;70065;42.700;23.316;2023-08-07T11:44:23;3.45;;;1.75;;
80559;SDS011;70065;42.700;23.316;2023-08-07T11:46:50;2.78;;;1.65;;
80559;SDS011;70065;42.700;23.316;2023-08-07T11:49:16;2.75;;;1.60;;
80559;SDS011;70065;42.700;23.316;2023-08-07T11:51:42;3.38;;;1.80;;
80559;SDS011;70065;42.700;23.316;2023-08-07T11:54:13;3.05;;;1.83;;
80559;SDS011;70065;42.700;23.316;2023-08-07T11:56:41;3.42;;;1.48;;
80559;SDS011;70065;42.700;23.316;2023-08-07T11:59:18;2.00;;;1.50;;
80559;SDS011;70065;42.700;23.316;2023-08-07T12:01:45;2.05;;;1.33;;
80559;SDS011;70065;42.700;23.316;2023-08-07T12:04:11;2.00;;;1.35;;
80559;SDS011;70065;42.700;23.316;2023-08-07T12:06:38;2.80;;;1.48;;
80559;SDS011;70065;42.700;23.316;2023-08-07T12:09:19;3.50;;;1.80;;
80559;SDS011;70065;42.700;23.316;2023-08-07T12:11:46;3.78;;;1.63;;
80559;SDS011;70065;42.700;23.316;2023-08-07T12:14:15;1.55;;;1.40;;
80559;SDS011;70065;42.700;23.316;2023-08-07T12:16:43;1.73;;;1.48;;
80559;SDS011;70065;42.700;23.316;2023-08-07T12:19:13;1.75;;;1.48;;
80559;SDS011;70065;42.700;23.316;2023-08-07T12:21:40;2.30;;;1.35;;
80559;SDS011;70065;42.700;23.316;2023-08-07T12:24:07;1.92;;;1.70;;
80559;SDS011;70065;42.700;23.316;2023-08-07T12:26:33;2.00;;;1.80;;
80559;SDS011;70065;42.700;23.316;2023-08-07T12:28:58;2.20;;;1.58;;
80559;SDS011;70065;42.700;23.316;2023-08-07T12:31:24;1.60;;;1.42;;
80559;SDS011;70065;42.700;23.316;2023-08-07T12:33:50;3.05;;;1.60;;
80559;SDS011;70065;42.700;23.316;2023-08-07T12:36:16;3.70;;;1.80;;
80559;SDS011;70065;42.700;23.316;2023-08-07T12:38:41;2.22;;;1.58;;
80559;SDS011;70065;42.700;23.316;2023-08-07T12:41:07;2.38;;;1.55;;
80559;SDS011;70065;42.700;23.316;2023-08-07T12:43:34;2.15;;;1.58;;
80559;SDS011;70065;42.700;23.316;2023-08-07T12:46:00;2.20;;;1.70;;
80559;SDS011;70065;42.700;23.316;2023-08-07T12:48:26;1.67;;;1.52;;
80559;SDS011;70065;42.700;23.316;2023-08-07T12:50:53;2.80;;;1.52;;
80559;SDS011;70065;42.700;23.316;2023-08-07T12:53:19;2.50;;;1.60;;
80559;SDS011;70065;42.700;23.316;2023-08-07T12:55:45;3.63;;;1.67;;
80559;SDS011;70065;42.700;23.316;2023-08-07T12:58:10;3.22;;;1.88;;
80559;SDS011;70065;42.700;23.316;2023-08-07T13:00:38;4.60;;;1.70;;
80559;SDS011;70065;42.700;23.316;2023-08-07T13:03:08;2.95;;;1.55;;
80559;SDS011;70065;42.700;23.316;2023-08-07T13:05:34;2.28;;;1.42;;
80559;SDS011;70065;42.700;23.316;2023-08-07T13:08:03;2.15;;;1.75;;
80559;SDS011;70065;42.700;23.316;2023-08-07T13:10:32;1.40;;;1.30;;
80559;SDS011;70065;42.700;23.316;2023-08-07T13:13:01;2.00;;;1.58;;
80559;SDS011;70065;42.700;23.316;2023-08-07T13:15:29;1.60;;;1.50;;
80559;SDS011;70065;42.700;23.316;2023-08-07T13:17:55;2.63;;;1.80;;
80559;SDS011;70065;42.700;23.316;2023-08-07T13:20:21;1.88;;;1.42;;
80559;SDS011;70065;42.700;23.316;2023-08-07T13:22:52;3.58;;;1.55;;
80559;SDS011;70065;42.700;23.316;2023-08-07T13:25:21;1.35;;;1.25;;
80559;SDS011;70065;42.700;23.316;2023-08-07T13:27:47;2.22;;;1.75;;
80559;SDS011;70065;42.700;23.316;2023-08-07T13:30:12;2.50;;;1.60;;
80559;SDS011;70065;42.700;23.316;2023-08-07T13:32:38;2.13;;;1.48;;
80559;SDS011;70065;42.700;23.316;2023-08-07T13:35:04;2.88;;;1.63;;
80559;SDS011;70065;42.700;23.316;2023-08-07T13:37:30;1.58;;;1.35;;
80559;SDS011;70065;42.700;23.316;2023-08-07T13:39:57;2.00;;;1.80;;
80559;SDS011;70065;42.700;23.316;2023-08-07T13:42:25;1.67;;;1.58;;
80559;SDS011;70065;42.700;23.316;2023-08-07T13:44:54;2.72;;;1.80;;
80559;SDS011;70065;42.700;23.316;2023-08-07T13:47:20;2.05;;;1.40;;
80559;SDS011;70065;42.700;23.316;2023-08-07T13:49:46;1.63;;;1.52;;
80559;SDS011;70065;42.700;23.316;2023-08-07T13:52:13;2.58;;;1.60;;
80559;SDS011;70065;42.700;23.316;2023-08-07T13:54:39;2.45;;;1.90;;
80559;SDS011;70065;42.700;23.316;2023-08-07T13:57:05;2.75;;;1.58;;
80559;SDS011;70065;42.700;23.316;2023-08-07T13:59:31;2.35;;;1.35;;
80559;SDS011;70065;42.700;23.316;2023-08-07T14:01:57;2.40;;;1.60;;
80559;SDS011;70065;42.700;23.316;2023-08-07T14:04:24;2.75;;;2.05;;
80559;SDS011;70065;42.700;23.316;2023-08-07T14:06:50;2.65;;;1.73;;
80559;SDS011;70065;42.700;23.316;2023-08-07T14:09:16;2.22;;;1.70;;
80559;SDS011;70065;42.700;23.316;2023-08-07T14:11:44;1.42;;;1.33;;
80559;SDS011;70065;42.700;23.316;2023-08-07T14:14:15;2.00;;;1.52;;
80559;SDS011;70065;42.700;23.316;2023-08-07T14:16:41;2.45;;;1.60;;
80559;SDS011;70065;42.700;23.316;2023-08-07T14:19:08;3.15;;;1.70;;
80559;SDS011;70065;42.700;23.316;2023-08-07T14:21:33;2.00;;;1.77;;
80559;SDS011;70065;42.700;23.316;2023-08-07T14:23:59;2.03;;;1.85;;
80559;SDS011;70065;42.700;23.316;2023-08-07T14:26:25;1.83;;;1.55;;
80559;SDS011;70065;42.700;23.316;2023-08-07T14:28:51;2.42;;;1.80;;
80559;SDS011;70065;42.700;23.316;2023-08-07T14:31:17;2.15;;;1.63;;
80559;SDS011;70065;42.700;23.316;2023-08-07T14:33:43;1.70;;;1.60;;
80559;SDS011;70065;42.700;23.316;2023-08-07T14:36:09;1.98;;;1.60;;
80559;SDS011;70065;42.700;23.316;2023-08-07T14:38:35;1.75;;;1.60;;
80559;SDS011;70065;42.700;23.316;2023-08-07T14:41:01;1.80;;;1.70;;
80559;SDS011;70065;42.700;23.316;2023-08-07T14:43:29;1.92;;;1.75;;
80559;SDS011;70065;42.700;23.316;2023-08-07T14:45:55;3.03;;;1.67;;
80559;SDS011;70065;42.700;23.316;2023-08-07T14:48:25;3.28;;;1.88;;
80559;SDS011;70065;42.700;23.316;2023-08-07T14:50:50;2.20;;;1.73;;
80559;SDS011;70065;42.700;23.316;2023-08-07T14:53:16;2.85;;;1.77;;